createdAt,value
2018-05-27T00:00:57.198Z,52.50
2018-05-27T00:03:24.694Z,51.40
2018-05-27T00:05:52.201Z,51.70
2018-05-27T00:08:19.882Z,51.70
2018-05-27T00:10:47.399Z,51.60
2018-05-27T00:13:14.938Z,51.80
2018-05-27T00:15:43.292Z,51.50
2018-05-27T00:18:10.778Z,51.50
2018-05-27T00:20:39.063Z,51.80
2018-05-27T00:23:07.348Z,51.90
2018-05-27T00:25:34.879Z,51.80
2018-05-27T00:28:02.401Z,51.80
2018-05-27T00:30:29.923Z,52.80
2018-05-27T00:32:58.203Z,53.30
2018-05-27T00:35:25.720Z,53.30
2018-05-27T00:37:53.223Z,53.60
2018-05-27T00:40:20.748Z,54.00
2018-05-27T00:42:48.285Z,53.90
2018-05-27T00:45:15.818Z,54.20
2018-05-27T00:47:44.115Z,54.30
2018-05-27T00:50:12.406Z,54.30
2018-05-27T00:52:39.957Z,54.30
2018-05-27T00:55:08.228Z,54.60
2018-05-27T00:57:36.541Z,54.50
2018-05-27T01:00:04.073Z,54.40
2018-05-27T01:02:32.350Z,54.70
2018-05-27T01:05:00.655Z,54.70
2018-05-27T01:07:28.203Z,54.50
2018-05-27T01:09:56.480Z,54.80
2018-05-27T01:12:24.757Z,55.00
2018-05-27T01:14:52.324Z,55.00
2018-05-27T01:17:21.360Z,54.80
2018-05-27T01:19:48.893Z,54.70
2018-05-27T01:22:17.179Z,54.90
2018-05-27T01:24:45.469Z,54.90
2018-05-27T01:27:13.709Z,54.90
2018-05-27T01:29:41.239Z,55.30
2018-05-27T01:32:10.335Z,55.60
2018-05-27T01:34:37.849Z,55.50
2018-05-27T01:37:05.408Z,55.30
2018-05-27T01:39:33.727Z,55.20
2018-05-27T01:42:01.239Z,55.30
2018-05-27T01:44:28.750Z,55.70
2018-05-27T01:46:56.274Z,55.60
2018-05-27T01:49:23.809Z,55.50
2018-05-27T01:51:51.356Z,55.60
2018-05-27T01:54:18.883Z,56.00
2018-05-27T01:56:47.171Z,55.90
2018-05-27T01:59:14.720Z,55.80
2018-05-27T02:01:43.005Z,55.90
2018-05-27T02:04:11.310Z,56.60
2018-05-27T02:06:38.848Z,56.00
2018-05-27T02:09:06.385Z,55.80
2018-05-27T02:11:33.963Z,55.90
2018-05-27T02:14:01.479Z,56.10
2018-05-27T02:16:29.008Z,56.10
2018-05-27T02:18:57.386Z,56.10
2018-05-27T02:21:24.922Z,56.10
2018-05-27T02:23:52.454Z,56.00
2018-05-27T02:26:20.037Z,56.20
2018-05-27T02:28:47.553Z,56.30
2018-05-27T02:31:15.103Z,56.50
2018-05-27T02:33:43.624Z,56.60
2018-05-27T02:36:11.474Z,56.60
2018-05-27T02:38:40.011Z,56.60
2018-05-27T02:41:07.711Z,56.60
2018-05-27T02:43:35.401Z,56.80
2018-05-27T02:46:03.876Z,57.00
2018-05-27T02:48:32.151Z,56.80
2018-05-27T02:51:00.438Z,56.80
2018-05-27T02:53:28.053Z,56.80
2018-05-27T02:55:55.716Z,56.90
2018-05-27T02:58:23.263Z,56.70
2018-05-27T03:00:50.814Z,57.10
2018-05-27T03:03:18.368Z,57.40
2018-05-27T03:05:45.914Z,57.40
2018-05-27T03:08:14.209Z,57.40
2018-05-27T03:10:42.503Z,57.50
2018-05-27T03:13:10.050Z,58.10
2018-05-27T03:15:38.363Z,57.40
2018-05-27T03:18:05.901Z,57.40
2018-05-27T03:20:34.198Z,57.90
2018-05-27T03:23:02.009Z,57.90
2018-05-27T03:25:29.546Z,58.10
2018-05-27T03:27:57.100Z,58.00
2018-05-27T03:30:24.638Z,58.30
2018-05-27T03:32:52.955Z,57.60
2018-05-27T03:35:20.571Z,57.60
2018-05-27T03:37:48.101Z,58.00
2018-05-27T03:40:16.169Z,58.00
2018-05-27T03:42:43.683Z,58.20
2018-05-27T03:45:11.988Z,58.90
2018-05-27T03:47:39.535Z,58.20
2018-05-27T03:50:07.112Z,58.40
2018-05-27T03:52:34.655Z,58.70
2018-05-27T03:55:02.952Z,58.40
2018-05-27T03:57:31.248Z,58.90
2018-05-27T03:59:58.779Z,58.90
2018-05-27T04:02:27.100Z,58.80
2018-05-27T04:05:06.783Z,58.80
2018-05-27T04:07:46.112Z,58.60
2018-05-27T04:10:13.647Z,59.30
2018-05-27T04:12:41.190Z,59.30
2018-05-27T04:15:08.732Z,59.80
2018-05-27T04:17:37.013Z,60.00
2018-05-27T04:20:05.580Z,60.10
2018-05-27T04:22:33.152Z,60.10
2018-05-27T04:25:00.691Z,60.60
2018-05-27T04:27:28.238Z,59.80
2018-05-27T04:29:55.779Z,59.70
2018-05-27T04:32:23.327Z,59.80
2018-05-27T04:34:51.623Z,60.20
2018-05-27T04:37:19.164Z,60.10
2018-05-27T04:39:47.457Z,60.00
2018-05-27T04:42:15.025Z,59.90
2018-05-27T04:44:43.024Z,59.90
2018-05-27T04:47:10.540Z,60.00
2018-05-27T04:49:38.852Z,61.20
2018-05-27T04:52:06.394Z,61.20
2018-05-27T04:54:34.698Z,60.90
2018-05-27T04:57:02.229Z,60.90
2018-05-27T04:59:30.542Z,62.00
2018-05-27T05:01:58.078Z,62.00
2018-05-27T05:04:26.377Z,61.80
2018-05-27T05:06:54.497Z,61.70
2018-05-27T05:09:22.025Z,61.30
2018-05-27T05:11:49.540Z,61.70
2018-05-27T05:14:17.091Z,62.00
2018-05-27T05:16:44.643Z,62.50
2018-05-27T05:19:12.170Z,62.30
2018-05-27T05:21:39.902Z,61.90
2018-05-27T05:24:07.259Z,61.70
2018-05-27T05:26:34.797Z,62.50
2018-05-27T05:29:03.086Z,62.90
2018-05-27T05:31:30.638Z,62.90
2018-05-27T05:33:58.160Z,62.40
2018-05-27T05:36:26.478Z,62.80
2018-05-27T05:38:54.005Z,62.70
2018-05-27T05:41:22.316Z,62.80
2018-05-27T05:43:49.883Z,62.80
2018-05-27T05:46:17.450Z,62.50
2018-05-27T05:48:45.010Z,63.10
2018-05-27T05:51:13.063Z,61.60
2018-05-27T05:53:40.605Z,62.50
2018-05-27T05:56:08.912Z,62.50
2018-05-27T05:58:36.456Z,62.50
2018-05-27T06:01:04.744Z,63.50
2018-05-27T06:03:33.038Z,61.50
2018-05-27T06:06:00.612Z,61.50
2018-05-27T06:08:28.160Z,61.40
2018-05-27T06:10:55.743Z,61.50
2018-05-27T06:13:23.269Z,62.30
2018-05-27T06:15:51.573Z,62.40
2018-05-27T06:18:19.094Z,62.40
2018-05-27T06:20:46.631Z,62.80
2018-05-27T06:23:14.147Z,62.90
2018-05-27T06:25:42.450Z,62.50
2018-05-27T06:28:09.941Z,62.60
2018-05-27T06:30:37.449Z,61.00
2018-05-27T06:33:05.727Z,61.60
2018-05-27T06:35:34.066Z,60.70
2018-05-27T06:38:01.613Z,60.60
2018-05-27T06:40:29.180Z,61.20
2018-05-27T06:42:56.717Z,61.00
2018-05-27T06:45:25.016Z,61.90
2018-05-27T06:47:52.557Z,61.80
2018-05-27T06:50:20.825Z,62.20
2018-05-27T06:52:49.105Z,60.10
2018-05-27T06:55:16.637Z,60.10
2018-05-27T06:57:44.156Z,60.60
2018-05-27T07:00:12.428Z,61.30
2018-05-27T07:02:39.956Z,61.20
2018-05-27T07:05:07.457Z,59.90
2018-05-27T07:07:35.031Z,59.10
2018-05-27T07:10:02.573Z,59.00
2018-05-27T07:12:30.874Z,59.80
2018-05-27T07:14:58.390Z,59.80
2018-05-27T07:17:25.903Z,61.40
2018-05-27T07:19:53.433Z,61.00
2018-05-27T07:22:20.956Z,60.70
2018-05-27T07:24:48.554Z,61.80
2018-05-27T07:27:16.085Z,61.80
2018-05-27T07:29:43.649Z,61.20
2018-05-27T07:32:11.258Z,61.00
2018-05-27T07:34:38.816Z,60.60
2018-05-27T07:37:06.317Z,60.40
2018-05-27T07:39:33.877Z,59.80
2018-05-27T07:42:01.405Z,59.70
2018-05-27T07:44:28.922Z,59.70
2018-05-27T07:46:56.477Z,59.00
2018-05-27T07:49:23.987Z,58.50
2018-05-27T07:51:51.543Z,58.90
2018-05-27T07:54:19.089Z,58.00
2018-05-27T07:56:46.624Z,58.30
2018-05-27T07:59:14.160Z,58.40
2018-05-27T08:01:42.500Z,56.10
2018-05-27T08:04:10.018Z,56.00
2018-05-27T08:06:38.289Z,54.80
2018-05-27T08:09:06.591Z,54.10
2018-05-27T08:11:34.123Z,54.00
2018-05-27T08:14:01.653Z,54.10
2018-05-27T08:16:29.178Z,55.00
2018-05-27T08:18:56.791Z,54.60
2018-05-27T08:21:24.344Z,55.30
2018-05-27T08:23:51.861Z,54.10
2018-05-27T08:26:20.171Z,56.00
2018-05-27T08:28:47.715Z,56.00
2018-05-27T08:31:15.261Z,54.80
2018-05-27T08:33:43.586Z,54.70
2018-05-27T08:36:11.136Z,54.80
2018-05-27T08:38:38.652Z,54.60
2018-05-27T08:41:06.200Z,53.30
2018-05-27T08:43:33.809Z,54.20
2018-05-27T08:46:01.258Z,52.90
2018-05-27T08:48:29.561Z,52.20
2018-05-27T08:50:57.405Z,51.80
2018-05-27T08:53:25.745Z,50.20
2018-05-27T08:55:53.306Z,50.10
2018-05-27T08:58:20.916Z,51.10
2018-05-27T09:00:49.220Z,51.10
2018-05-27T09:03:16.762Z,50.90
2018-05-27T09:05:44.296Z,50.10
2018-05-27T09:08:11.816Z,50.20
2018-05-27T09:10:39.329Z,50.60
2018-05-27T09:13:06.829Z,51.60
2018-05-27T09:15:35.111Z,51.80
2018-05-27T09:18:03.446Z,49.40
2018-05-27T09:20:30.982Z,49.30
2018-05-27T09:22:58.648Z,48.00
2018-05-27T09:25:26.247Z,49.80
2018-05-27T09:27:53.885Z,50.10
2018-05-27T09:30:21.459Z,52.10
2018-05-27T09:32:49.019Z,52.50
2018-05-27T09:35:17.312Z,52.60
2018-05-27T09:37:44.852Z,52.60
2018-05-27T09:40:12.395Z,52.10
2018-05-27T09:42:40.669Z,51.90
2018-05-27T09:45:08.228Z,51.90
2018-05-27T09:47:35.795Z,50.10
2018-05-27T09:50:04.091Z,52.10
2018-05-27T09:52:32.360Z,52.90
2018-05-27T09:55:00.652Z,53.90
2018-05-27T09:57:29.015Z,53.70
2018-05-27T09:59:57.350Z,53.40
2018-05-27T10:02:24.843Z,53.20
2018-05-27T10:04:52.406Z,52.60
2018-05-27T10:07:20.746Z,51.60
2018-05-27T10:09:48.274Z,51.50
2018-05-27T10:12:16.553Z,53.10
2018-05-27T10:14:44.839Z,52.50
2018-05-27T10:17:13.111Z,53.40
2018-05-27T10:19:41.393Z,54.70
2018-05-27T10:22:09.742Z,52.70
2018-05-27T10:24:37.293Z,52.60
2018-05-27T10:27:04.837Z,53.20
2018-05-27T10:29:33.209Z,52.40
2018-05-27T10:32:00.742Z,52.60
2018-05-27T10:34:28.311Z,49.00
2018-05-27T10:36:56.616Z,49.70
2018-05-27T10:39:24.124Z,49.50
2018-05-27T10:41:51.666Z,48.40
2018-05-27T10:44:19.200Z,49.00
2018-05-27T10:46:47.491Z,50.40
2018-05-27T10:49:15.116Z,50.40
2018-05-27T10:51:42.715Z,52.20
2018-05-27T10:54:10.252Z,52.00
2018-05-27T10:56:38.555Z,53.80
2018-05-27T10:59:06.932Z,53.80
2018-05-27T11:01:34.465Z,53.70
2018-05-27T11:04:01.995Z,54.30
2018-05-27T11:06:29.544Z,54.00
2018-05-27T11:08:57.115Z,55.20
2018-05-27T11:11:24.641Z,55.50
2018-05-27T11:13:52.928Z,57.10
2018-05-27T11:16:21.229Z,57.00
2018-05-27T11:18:48.750Z,57.00
2018-05-27T11:21:16.278Z,57.00
2018-05-27T11:23:44.578Z,57.30
2018-05-27T11:26:12.139Z,57.70
2018-05-27T11:28:39.673Z,57.60
2018-05-27T11:31:07.230Z,58.20
2018-05-27T11:33:34.766Z,58.30
2018-05-27T11:36:03.033Z,58.30
2018-05-27T11:38:30.622Z,58.30
2018-05-27T11:40:58.905Z,58.30
2018-05-27T11:43:27.176Z,57.60
2018-05-27T11:45:55.494Z,57.90
2018-05-27T11:48:23.086Z,57.90
2018-05-27T11:50:50.622Z,59.10
2018-05-27T11:53:18.173Z,58.80
2018-05-27T11:55:45.701Z,57.90
2018-05-27T11:58:13.221Z,56.30
2018-05-27T12:00:40.742Z,56.20
2018-05-27T12:03:10.593Z,55.90
2018-05-27T12:05:38.209Z,55.90
2018-05-27T12:08:06.518Z,56.20
2018-05-27T12:10:34.795Z,56.00
2018-05-27T12:13:03.124Z,56.40
2018-05-27T12:15:31.497Z,56.40
2018-05-27T12:17:59.060Z,56.40
2018-05-27T12:20:26.622Z,56.90
2018-05-27T12:22:54.153Z,57.00
2018-05-27T12:25:22.444Z,56.50
2018-05-27T12:27:49.970Z,56.50
2018-05-27T12:30:17.477Z,56.60
2018-05-27T12:32:45.014Z,57.20
2018-05-27T12:35:12.608Z,56.10
2018-05-27T12:37:40.130Z,56.80
2018-05-27T12:40:08.521Z,56.70
2018-05-27T12:42:36.857Z,57.20
2018-05-27T12:45:04.386Z,56.90
2018-05-27T12:47:31.925Z,57.40
2018-05-27T12:49:59.494Z,56.90
2018-05-27T12:52:27.812Z,56.70
2018-05-27T12:54:55.315Z,56.70
2018-05-27T12:57:23.310Z,57.10
2018-05-27T12:59:50.840Z,58.90
2018-05-27T13:02:18.346Z,59.50
2018-05-27T13:04:46.666Z,59.60
2018-05-27T13:07:14.178Z,59.60
2018-05-27T13:09:41.697Z,58.90
2018-05-27T13:12:09.208Z,58.00
2018-05-27T13:14:36.716Z,57.90
2018-05-27T13:17:04.235Z,57.80
2018-05-27T13:19:31.760Z,58.30
2018-05-27T13:21:59.259Z,59.20
2018-05-27T13:24:26.764Z,58.50
2018-05-27T13:26:54.277Z,58.90
2018-05-27T13:29:21.780Z,59.60
2018-05-27T13:31:49.298Z,57.90
2018-05-27T13:34:16.801Z,57.70
2018-05-27T13:36:44.313Z,59.00
2018-05-27T13:39:11.817Z,59.40
2018-05-27T13:41:39.346Z,59.40
2018-05-27T13:44:06.837Z,61.00
2018-05-27T13:46:35.116Z,64.40
2018-05-27T13:49:03.369Z,64.50
2018-05-27T13:51:30.860Z,64.50
2018-05-27T13:53:59.139Z,64.50
2018-05-27T13:56:27.414Z,65.90
2018-05-27T13:58:54.929Z,65.90
2018-05-27T14:01:22.429Z,67.60
2018-05-27T14:03:49.935Z,72.10
2018-05-27T14:06:17.437Z,72.20
2018-05-27T14:08:45.064Z,73.40
2018-05-27T14:11:12.570Z,76.20
2018-05-27T14:13:40.193Z,77.30
2018-05-27T14:16:07.704Z,79.80
2018-05-27T14:18:35.219Z,81.00
2018-05-27T14:21:02.713Z,82.40
2018-05-27T14:23:30.246Z,81.60
2018-05-27T14:25:57.769Z,84.20
2018-05-27T14:28:25.281Z,86.10
2018-05-27T14:30:52.835Z,85.90
2018-05-27T14:33:20.371Z,84.50
2018-05-27T14:35:55.777Z,84.80
2018-05-27T14:38:23.285Z,90.10
2018-05-27T14:40:51.564Z,88.40
2018-05-27T14:43:20.772Z,88.80
2018-05-27T14:45:49.050Z,86.40
2018-05-27T14:48:16.555Z,86.40
2018-05-27T14:50:44.041Z,84.80
2018-05-27T14:53:11.545Z,88.00
2018-05-27T14:55:39.092Z,86.40
2018-05-27T14:58:07.364Z,88.00
2018-05-27T15:00:34.865Z,88.00
2018-05-27T15:03:02.353Z,87.00
2018-05-27T15:05:29.888Z,87.60
2018-05-27T15:07:57.404Z,88.30
2018-05-27T15:10:24.924Z,87.70
2018-05-27T15:12:52.442Z,88.50
2018-05-27T15:15:19.957Z,87.80
2018-05-27T15:17:47.493Z,88.30
2018-05-27T15:20:15.769Z,87.30
2018-05-27T15:22:44.063Z,86.60
2018-05-27T15:25:11.604Z,86.60
2018-05-27T15:27:39.091Z,87.40
2018-05-27T15:30:06.609Z,87.50
2018-05-27T15:32:34.137Z,86.20
2018-05-27T15:35:01.617Z,86.80
2018-05-27T15:37:29.124Z,86.90
2018-05-27T15:39:57.387Z,86.10
2018-05-27T15:42:26.154Z,86.00
2018-05-27T15:44:53.676Z,89.20
2018-05-27T15:47:21.234Z,87.20
2018-05-27T15:49:48.768Z,85.80
2018-05-27T15:52:16.270Z,86.90
2018-05-27T15:54:43.760Z,84.70
2018-05-27T15:57:11.261Z,84.40
2018-05-27T15:59:39.544Z,84.70
2018-05-27T16:02:07.798Z,82.60
2018-05-27T16:04:35.296Z,82.60
2018-05-27T16:07:03.560Z,84.80
2018-05-27T16:09:31.836Z,83.50
2018-05-27T16:11:59.353Z,82.90
2018-05-27T16:14:26.841Z,87.20
2018-05-27T16:16:54.349Z,85.80
2018-05-27T16:19:22.640Z,84.20
2018-05-27T16:21:50.131Z,84.20
2018-05-27T16:24:17.638Z,84.50
2018-05-27T16:26:45.146Z,85.50
2018-05-27T16:29:12.633Z,85.60
2018-05-27T16:31:40.133Z,86.00
2018-05-27T16:34:08.416Z,86.30
2018-05-27T16:36:36.706Z,87.10
2018-05-27T16:39:05.927Z,84.70
2018-05-27T16:41:33.423Z,84.70
2018-05-27T16:44:00.933Z,86.40
2018-05-27T16:46:29.198Z,83.00
2018-05-27T16:48:57.469Z,84.70
2018-05-27T16:51:24.970Z,84.70
2018-05-27T16:53:52.475Z,85.50
2018-05-27T16:56:19.985Z,85.90
2018-05-27T16:58:48.266Z,85.00
2018-05-27T17:01:16.546Z,84.80
2018-05-27T17:03:44.821Z,84.80
2018-05-27T17:06:13.095Z,84.90
2018-05-27T17:08:41.371Z,85.00
2018-05-27T17:11:08.867Z,85.10
2018-05-27T17:13:36.371Z,84.30
2018-05-27T17:16:03.890Z,84.30
2018-05-27T17:18:31.413Z,85.80
2018-05-27T17:20:59.713Z,85.80
2018-05-27T17:23:27.199Z,85.80
2018-05-27T17:25:54.724Z,85.20
2018-05-27T17:28:22.214Z,85.40
2018-05-27T17:30:50.494Z,86.90
2018-05-27T17:33:18.013Z,86.90
2018-05-27T17:35:45.557Z,84.10
2018-05-27T17:38:13.097Z,84.70
2018-05-27T17:40:40.610Z,84.00
2018-05-27T17:43:08.143Z,83.90
2018-05-27T17:45:35.652Z,82.40
2018-05-27T17:48:11.942Z,83.30
2018-05-27T17:50:39.448Z,84.10
2018-05-27T17:53:06.955Z,83.60
2018-05-27T17:55:35.218Z,85.20
2018-05-27T17:58:03.661Z,85.10
2018-05-27T18:00:31.157Z,84.70
2018-05-27T18:02:58.695Z,84.50
2018-05-27T18:05:26.214Z,85.30
2018-05-27T18:07:54.492Z,85.60
2018-05-27T18:10:22.791Z,85.80
2018-05-27T18:12:50.307Z,85.80
2018-05-27T18:15:17.831Z,86.20
2018-05-27T18:17:45.355Z,86.90
2018-05-27T18:20:13.612Z,86.40
2018-05-27T18:22:41.113Z,86.40
2018-05-27T18:25:08.621Z,86.10
2018-05-27T18:27:36.152Z,86.20
2018-05-27T18:30:03.658Z,85.70
2018-05-27T18:32:31.166Z,86.70
2018-05-27T18:34:58.671Z,86.90
2018-05-27T18:37:26.185Z,86.50
2018-05-27T18:39:54.455Z,86.40
2018-05-27T18:42:22.745Z,85.70
2018-05-27T18:44:51.015Z,85.60
2018-05-27T18:47:19.291Z,86.10
2018-05-27T18:49:47.567Z,86.10
2018-05-27T18:52:15.085Z,86.10
2018-05-27T18:54:42.596Z,87.00
2018-05-27T18:57:10.160Z,87.60
2018-05-27T18:59:37.763Z,87.50
2018-05-27T19:02:05.299Z,86.30
2018-05-27T19:04:33.581Z,85.50
2018-05-27T19:07:01.847Z,83.10
2018-05-27T19:09:29.348Z,83.10
2018-05-27T19:11:56.883Z,84.10
2018-05-27T19:14:25.259Z,83.30
2018-05-27T19:16:52.768Z,82.80
2018-05-27T19:19:20.272Z,83.40
2018-05-27T19:21:47.779Z,82.80
2018-05-27T19:24:15.348Z,83.30
2018-05-27T19:26:42.912Z,82.30
2018-05-27T19:29:10.426Z,82.90
2018-05-27T19:31:37.936Z,83.90
2018-05-27T19:34:05.447Z,85.10
2018-05-27T19:36:32.966Z,84.70
2018-05-27T19:39:00.500Z,84.30
2018-05-27T19:41:28.785Z,85.00
2018-05-27T19:43:57.040Z,84.70
2018-05-27T19:46:24.543Z,84.60
2018-05-27T19:48:52.056Z,84.10
2018-05-27T19:51:19.554Z,83.10
2018-05-27T19:53:47.822Z,84.20
2018-05-27T19:56:15.329Z,84.20
2018-05-27T19:58:42.829Z,84.50
2018-05-27T20:01:11.845Z,85.20
2018-05-27T20:03:40.121Z,84.40
2018-05-27T20:06:08.461Z,84.40
2018-05-27T20:08:35.968Z,83.90
2018-05-27T20:11:03.508Z,84.30
2018-05-27T20:13:31.023Z,84.70
2018-05-27T20:15:58.537Z,84.70
2018-05-27T20:18:26.060Z,84.20
2018-05-27T20:20:54.368Z,85.50
2018-05-27T20:23:22.630Z,85.30
2018-05-27T20:25:50.152Z,85.30
2018-05-27T20:28:17.671Z,85.40
2018-05-27T20:30:45.196Z,85.00
2018-05-27T20:33:12.700Z,85.10
2018-05-27T20:35:40.220Z,85.90
2018-05-27T20:38:08.505Z,84.00
2018-05-27T20:40:36.762Z,84.40
2018-05-27T20:43:05.045Z,84.80
2018-05-27T20:45:32.553Z,84.80
2018-05-27T20:48:00.060Z,83.20
2018-05-27T20:50:27.569Z,83.60
2018-05-27T20:52:55.091Z,83.70
2018-05-27T20:55:22.593Z,84.00
2018-05-27T20:57:50.116Z,82.70
2018-05-27T21:00:17.648Z,83.10
2018-05-27T21:02:45.170Z,82.60
2018-05-27T21:05:12.698Z,83.20
2018-05-27T21:07:40.322Z,83.20
2018-05-27T21:10:07.866Z,82.90
2018-05-27T21:12:37.002Z,81.90
2018-05-27T21:15:04.524Z,81.50
2018-05-27T21:17:32.823Z,81.90
2018-05-27T21:20:00.361Z,81.90
2018-05-27T21:22:28.664Z,82.80
2018-05-27T21:24:56.177Z,83.60
2018-05-27T21:27:23.716Z,81.70
2018-05-27T21:29:51.267Z,82.10
2018-05-27T21:32:18.833Z,81.70
2018-05-27T21:34:48.084Z,81.20
2018-05-27T21:37:15.675Z,81.40
2018-05-27T21:39:43.191Z,80.80
2018-05-27T21:42:11.490Z,80.10
2018-05-27T21:44:39.781Z,80.00
2018-05-27T21:47:07.318Z,79.90
2018-05-27T21:49:35.075Z,80.10
2018-05-27T21:52:02.593Z,81.70
2018-05-27T21:54:30.102Z,80.90
2018-05-27T21:56:57.642Z,81.40
2018-05-27T21:59:25.178Z,80.90
2018-05-27T22:01:53.051Z,81.70
2018-05-27T22:04:21.347Z,80.60
2018-05-27T22:06:49.140Z,80.60
2018-05-27T22:09:16.701Z,80.70
2018-05-27T22:11:44.490Z,80.60
2018-05-27T22:14:12.038Z,81.20
2018-05-27T22:16:39.565Z,81.60
2018-05-27T22:19:07.841Z,80.70
2018-05-27T22:21:36.118Z,81.10
2018-05-27T22:24:04.394Z,80.90
2018-05-27T22:26:32.689Z,80.90
2018-05-27T22:29:00.219Z,80.90
2018-05-27T22:31:27.773Z,80.70
2018-05-27T22:33:55.282Z,80.30
2018-05-27T22:36:23.558Z,79.80
2018-05-27T22:38:52.038Z,79.80
2018-05-27T22:41:20.326Z,79.80
2018-05-27T22:43:48.638Z,80.40
2018-05-27T22:46:16.194Z,80.40
2018-05-27T22:48:43.731Z,81.20
2018-05-27T22:51:11.267Z,81.40
2018-05-27T22:53:38.791Z,81.70
2018-05-27T22:56:07.098Z,81.10
2018-05-27T22:58:34.655Z,81.10
2018-05-27T23:01:02.168Z,81.50
2018-05-27T23:03:30.450Z,82.80
2018-05-27T23:05:58.721Z,81.80
2018-05-27T23:08:27.001Z,82.50
2018-05-27T23:10:55.294Z,83.90
2018-05-27T23:13:23.590Z,82.90
2018-05-27T23:15:51.491Z,82.90
2018-05-27T23:18:19.007Z,83.40
2018-05-27T23:20:46.535Z,83.90
2018-05-27T23:23:14.047Z,83.80
2018-05-27T23:25:41.577Z,83.40
2018-05-27T23:28:09.104Z,83.20
2018-05-27T23:30:36.618Z,83.40
2018-05-27T23:33:04.901Z,84.10
2018-05-27T23:35:33.563Z,83.90
2018-05-27T23:38:01.427Z,83.90
2018-05-27T23:40:28.947Z,83.30
2018-05-27T23:42:56.455Z,83.70
2018-05-27T23:45:23.975Z,84.10
2018-05-27T23:47:52.261Z,83.60
2018-05-27T23:50:20.559Z,84.00
2018-05-27T23:52:48.859Z,83.10
2018-05-27T23:55:16.400Z,83.10
2018-05-27T23:57:44.054Z,83.60
